Local Weather
17097
page-template-default,page,page-id-17097,bridge-core-1.0.4,ajax_fade,page_not_loaded,,hide_top_bar_on_mobile_header,qode-child-theme-ver-1.0.0,qode-theme-ver-18.0.9,qode-theme-bridge,qode_header_in_grid,wpb-js-composer js-comp-ver-4.11.2.1,vc_responsive
 

LOCAL WEATHER

METAR & TAF for EGTK Oxford

Available data for EGTK from the past hour
OXFORD
Metar
EGTK 271450Z 25005KT 9999 OVC006 10/09 Q1011

14:50 UTC

Wind: 250° 5kt

Visibility: 9999 m

Sky: OVC 600 ft

Temp: 10 deg C / 50 deg F

Dewpoint: 9 deg C / 48.2 deg F

Pressure: 1011 hPa

TAF
TAF EGTK 271357Z 2715/2721 22003KT 9999 SCT003 BKN040 TEMPO 2715/2717 6000 BKN003 PROB40 TEMPO 2715/2721 2000 BR -DZ BECMG 2717/2720 6000 -RA BKN006 TEMPO 2717/2721 RADZ BKN003